Hydropolis, Louisiana
Current Conditions -  °F | °C
As of 8:53 PM on Thursday 27 Nov 2014 (Local Time) from KESF Reporting Station
Clear Clear  
Wind Chill: 38°   Ceiling: Unl
Heat Index: 38°   Visibility: 10mi
Dew Point: 34°   Wind: 0mph
Humidity: 86%   Direction: NA
Pressure: 30.47"   Gusts: NA
Location:  31.0649°N, 92.0567°W
Report Text: KESF 280253Z AUTO 00000KT 10SM CLR 03/01 A3047 RMK AO2 SLP317 T00330011 50002
Loading
Personal Weather Stations






























Interactive Weather Map New forecast layout! Learn more

10-Day Weather Forecast

Advertisements
Track Severe Weather on mobile